Time;durP1;ratioP1;P1;durP2;ratioP2;P2;SDS_P1;SDS_P2;PMS_P1;PMS_P2;Temp;Humidity;BMP_temperature;BMP_pressure;BME280_temperature;BME280_humidity;BME280_pressure;Samples;Min_cycle;Max_cycle;Signal;HPM_P1;HPM_P2
2021/07/14 00:01:05;;;;;;;5.60;3.73;;;;;;;9.71;100.00;93366.66;5074616;28;20199;-76
2021/07/14 00:03:32;;;;;;;4.33;3.10;;;;;;;9.63;100.00;93360.66;5074822;28;20195;-76
2021/07/14 00:06:05;;;;;;;9.53;4.40;;;;;;;9.61;100.00;93370.50;5074715;28;20237;-79
2021/07/14 00:08:31;;;;;;;6.60;4.27;;;;;;;9.67;100.00;93370.69;5074572;28;20220;-76
2021/07/14 00:10:58;;;;;;;8.53;3.97;;;;;;;9.69;100.00;93366.88;5074428;28;20202;-76
2021/07/14 00:13:31;;;;;;;6.27;3.80;;;;;;;9.62;100.00;93363.47;5074434;28;20206;-76
2021/07/14 00:24:14;;;;;;;5.53;3.73;;;;;;;9.57;100.00;93371.09;5054248;28;20202;-76
2021/07/14 00:26:41;;;;;;;8.57;4.20;;;;;;;9.50;100.00;93371.13;5068790;28;20690;-77
2021/07/14 00:29:11;;;;;;;7.63;4.00;;;;;;;9.43;100.00;93349.50;5065638;28;20261;-76
2021/07/14 00:31:39;;;;;;;7.90;5.27;;;;;;;9.41;100.00;93347.09;5074212;28;20201;-77
2021/07/14 00:34:05;;;;;;;6.30;3.97;;;;;;;9.39;100.00;93348.28;5074044;28;20307;-76
2021/07/14 00:36:33;;;;;;;6.17;4.07;;;;;;;9.34;100.00;93354.13;5073118;28;20252;-77
2021/07/14 00:38:59;;;;;;;11.80;4.93;;;;;;;9.34;100.00;93341.09;5073957;28;20198;-77
2021/07/14 00:41:26;;;;;;;11.03;4.70;;;;;;;9.42;100.00;93337.47;5074044;28;20252;-76
2021/07/14 00:43:52;;;;;;;8.93;4.83;;;;;;;9.44;100.00;93340.66;5073914;28;20653;-76
2021/07/14 00:46:22;;;;;;;11.97;5.17;;;;;;;9.42;100.00;93350.50;5073698;28;20750;-77
2021/07/14 00:48:50;;;;;;;10.10;5.23;;;;;;;9.48;100.00;93347.06;5073822;28;20294;-76
2021/07/14 00:51:19;;;;;;;10.77;5.57;;;;;;;9.52;100.00;93344.84;5073643;28;20309;-76
2021/07/14 00:53:50;;;;;;;10.47;5.00;;;;;;;9.43;100.00;93352.09;5073577;28;20654;-76
2021/07/14 00:56:22;;;;;;;11.60;5.00;;;;;;;9.43;100.00;93359.91;5073577;28;20672;-77
2021/07/14 00:58:54;;;;;;;7.73;4.87;;;;;;;9.33;100.00;93368.13;5073594;28;20199;-76
2021/07/14 01:01:20;;;;;;;8.90;4.87;;;;;;;9.40;100.00;93370.75;5073550;28;20199;-77
2021/07/14 01:03:53;;;;;;;8.63;4.73;;;;;;;9.33;100.00;93386.38;5073491;28;20199;-77
2021/07/14 01:06:26;;;;;;;7.73;5.40;;;;;;;9.34;100.00;93381.97;5073704;28;20230;-76
2021/07/14 01:09:01;;;;;;;7.47;4.87;;;;;;;9.33;100.00;93381.16;5073679;28;20202;-78
2021/07/14 01:11:31;;;;;;;9.43;5.63;;;;;;;9.30;100.00;93391.19;5073504;28;20225;-78
2021/07/14 01:14:06;;;;;;;12.20;5.43;;;;;;;9.21;100.00;93391.41;5073337;28;20254;-78
2021/07/14 01:16:36;;;;;;;12.03;5.47;;;;;;;9.26;100.00;93396.81;5073517;28;20205;-78
2021/07/14 01:19:16;;;;;;;13.60;6.33;;;;;;;9.30;100.00;93404.22;5073456;28;20202;-78
2021/07/14 01:21:45;;;;;;;10.07;6.07;;;;;;;9.30;100.00;93406.81;5073282;28;20202;-77
2021/07/14 01:24:17;;;;;;;9.67;5.93;;;;;;;9.29;100.00;93405.22;5073233;28;20229;-77
2021/07/14 01:27:04;;;;;;;16.30;5.80;;;;;;;9.33;100.00;93409.03;5072944;28;20261;-76
2021/07/14 01:29:32;;;;;;;10.10;5.63;;;;;;;9.29;100.00;93413.03;5073144;28;20201;-77
2021/07/14 01:32:01;;;;;;;12.07;5.27;;;;;;;9.23;100.00;93412.84;5073128;28;20217;-76
2021/07/14 01:34:30;;;;;;;15.67;6.30;;;;;;;9.25;100.00;93405.59;5072725;28;20206;-76
2021/07/14 01:36:59;;;;;;;11.00;6.10;;;;;;;9.32;100.00;93395.19;5072905;28;20202;-78
2021/07/14 01:39:28;;;;;;;13.53;6.03;;;;;;;9.46;100.00;93396.00;5073187;28;20207;-77
2021/07/14 01:41:58;;;;;;;10.23;6.03;;;;;;;9.39;100.00;93387.38;5072962;28;20199;-79
2021/07/14 01:44:29;;;;;;;9.50;5.57;;;;;;;9.36;100.00;93385.16;5072990;28;20206;-79
2021/07/14 01:46:58;;;;;;;9.67;5.50;;;;;;;9.42;100.00;93386.97;5072796;28;20601;-75
2021/07/14 01:49:29;;;;;;;10.00;6.10;;;;;;;9.53;100.00;93382.94;5072835;28;20646;-78
2021/07/14 01:52:01;;;;;;;16.77;6.73;;;;;;;9.59;100.00;93379.50;5072559;28;20596;-77
2021/07/14 01:54:29;;;;;;;9.83;6.30;;;;;;;9.59;100.00;93382.13;5072883;28;20285;-77
2021/07/14 01:56:59;;;;;;;11.17;6.07;;;;;;;9.59;100.00;93390.75;5073010;28;20207;-75
2021/07/14 01:59:29;;;;;;;9.13;5.90;;;;;;;9.62;100.00;93385.09;5072785;28;20658;-75
2021/07/14 02:01:57;;;;;;;9.63;6.13;;;;;;;9.65;100.00;93375.31;5072705;28;20593;-76
2021/07/14 02:04:31;;;;;;;12.10;6.30;;;;;;;9.66;100.00;93382.09;5072866;28;20199;-75
2021/07/14 02:06:59;;;;;;;12.53;6.00;;;;;;;9.66;100.00;93380.31;5072870;28;20269;-77
2021/07/14 02:09:26;;;;;;;10.37;5.83;;;;;;;9.64;100.00;93377.09;5072678;28;20727;-77
2021/07/14 02:11:56;;;;;;;12.70;5.67;;;;;;;9.60;100.00;93378.50;5072859;28;20202;-77
2021/07/14 02:14:30;;;;;;;14.83;5.37;;;;;;;9.60;100.00;93375.91;5072693;28;20199;-76
2021/07/14 02:16:59;;;;;;;7.93;5.03;;;;;;;9.59;100.00;93374.28;5072771;28;20199;-75
2021/07/14 02:19:29;;;;;;;10.50;6.03;;;;;;;9.66;100.00;93376.88;5072522;28;20202;-75
2021/07/14 02:21:56;;;;;;;7.63;5.20;;;;;;;9.72;100.00;93378.69;5072918;28;20195;-77
2021/07/14 02:24:23;;;;;;;13.23;6.10;;;;;;;9.81;100.00;93393.09;5072626;28;20198;-76
2021/07/14 02:26:54;;;;;;;8.80;5.77;;;;;;;9.86;100.00;93389.88;5072149;28;20238;-76
2021/07/14 02:29:20;;;;;;;11.90;5.83;;;;;;;9.94;100.00;93398.28;5072734;28;20198;-76
2021/07/14 02:31:48;;;;;;;10.67;6.27;;;;;;;10.03;100.00;93400.66;5072668;28;20199;-76
2021/07/14 02:34:14;;;;;;;11.03;5.93;;;;;;;10.05;100.00;93396.81;5072399;28;20257;-76
2021/07/14 02:36:43;;;;;;;13.03;5.90;;;;;;;10.08;100.00;93393.03;5072596;28;20209;-76
2021/07/14 02:39:11;;;;;;;13.30;5.70;;;;;;;10.08;100.00;93387.81;5072430;28;20668;-76
2021/07/14 02:41:48;;;;;;;18.83;5.50;;;;;;;10.07;100.00;93371.34;5072384;28;20194;-76
2021/07/14 02:44:19;;;;;;;7.80;5.03;;;;;;;10.02;100.00;93372.97;5072545;28;20297;-77
2021/07/14 02:46:49;;;;;;;11.00;5.53;;;;;;;10.03;100.00;93379.81;5072501;28;20267;-75
2021/07/14 02:49:22;;;;;;;13.30;5.47;;;;;;;10.04;100.00;93389.22;5072268;28;20195;-76
2021/07/14 02:51:50;;;;;;;10.93;4.10;;;;;;;10.08;100.00;93390.41;5072379;28;20199;-76
2021/07/14 02:54:22;;;;;;;13.23;5.83;;;;;;;10.17;100.00;93389.16;5072478;28;20199;-76
2021/07/14 02:56:51;;;;;;;9.63;5.40;;;;;;;10.22;100.00;93389.34;5072471;28;20207;-75
2021/07/14 02:59:21;;;;;;;11.27;5.70;;;;;;;10.23;100.00;93397.97;5072333;28;20194;-77
2021/07/14 03:01:49;;;;;;;10.13;5.57;;;;;;;10.28;100.00;93398.16;5072254;28;20252;-76
2021/07/14 03:04:21;;;;;;;11.93;5.57;;;;;;;10.31;100.00;93388.09;5074687;28;20210;-76
2021/07/14 03:06:48;;;;;;;6.73;4.87;;;;;;;10.38;100.00;93395.13;5076001;28;20226;-76
2021/07/14 03:09:15;;;;;;;13.50;5.33;;;;;;;10.36;100.00;93393.53;5075843;28;20199;-76
2021/07/14 03:11:43;;;;;;;10.10;5.90;;;;;;;10.41;100.00;93387.69;5075834;28;20203;-78
2021/07/14 03:14:15;;;;;;;12.33;5.80;;;;;;;10.42;100.00;93383.25;5075809;28;20214;-77
2021/07/14 03:16:43;;;;;;;7.97;5.60;;;;;;;10.43;100.00;93379.66;5075687;28;20202;-78
2021/07/14 03:19:13;;;;;;;9.40;5.80;;;;;;;10.47;100.00;93378.22;5075450;28;20199;-77
2021/07/14 03:21:40;;;;;;;12.57;5.70;;;;;;;10.43;100.00;93377.81;5075933;28;20194;-77
2021/07/14 03:24:08;;;;;;;7.67;5.40;;;;;;;10.41;100.00;93374.63;5075627;28;20236;-77
2021/07/14 03:26:37;;;;;;;11.37;5.03;;;;;;;10.44;100.00;93374.22;5074976;28;20716;-77
2021/07/14 03:29:06;;;;;;;9.93;5.17;;;;;;;10.44;100.00;93379.44;5075230;28;20195;-77
2021/07/14 03:31:35;;;;;;;11.53;5.30;;;;;;;10.49;100.00;93384.00;5075313;28;20563;-76
2021/07/14 03:34:05;;;;;;;8.40;5.23;;;;;;;10.53;100.00;93386.00;5074930;28;20650;-77
2021/07/14 03:36:36;;;;;;;10.00;5.70;;;;;;;10.54;100.00;93387.59;5075248;28;20229;-78
2021/07/14 03:39:06;;;;;;;9.03;4.83;;;;;;;10.59;100.00;93383.56;5075336;28;20264;-77
2021/07/14 03:41:33;;;;;;;10.20;5.37;;;;;;;10.60;100.00;93390.38;5075135;28;20208;-79
2021/07/14 03:44:01;;;;;;;8.07;5.50;;;;;;;10.65;100.00;93386.13;5075100;28;20202;-78
2021/07/14 03:46:29;;;;;;;12.67;5.63;;;;;;;10.62;100.00;93381.31;5075211;28;20222;-78
2021/07/14 03:48:56;;;;;;;9.00;5.30;;;;;;;10.62;100.00;93380.53;5075130;28;20203;-76
2021/07/14 03:51:24;;;;;;;11.10;5.27;;;;;;;10.62;100.00;93383.94;5075086;28;20198;-78
2021/07/14 03:53:52;;;;;;;9.50;5.30;;;;;;;10.66;100.00;93374.69;5075026;28;20199;-76
2021/07/14 03:56:23;;;;;;;12.73;5.17;;;;;;;10.68;100.00;93377.88;5074902;28;20206;-76
2021/07/14 03:58:53;;;;;;;12.37;5.40;;;;;;;10.68;100.00;93375.25;5074751;28;20226;-79
2021/07/14 04:01:20;;;;;;;12.00;5.37;;;;;;;10.69;100.00;93373.44;5074805;28;20225;-77
2021/07/14 04:03:47;;;;;;;11.63;4.40;;;;;;;10.72;100.00;93383.47;5074813;28;20233;-78
2021/07/14 04:06:15;;;;;;;7.73;5.10;;;;;;;10.76;100.00;93379.44;5074393;28;20628;-77
2021/07/14 04:08:44;;;;;;;10.70;4.53;;;;;;;10.77;100.00;93375.81;5074648;28;20199;-77
2021/07/14 04:11:13;;;;;;;12.47;5.37;;;;;;;10.79;100.00;93362.53;5074527;28;20253;-77
2021/07/14 04:13:42;;;;;;;8.03;4.90;;;;;;;10.79;100.00;93362.53;5074290;28;20207;-77
2021/07/14 04:16:08;;;;;;;7.70;5.03;;;;;;;10.82;100.00;93365.53;5074579;28;20199;-77
2021/07/14 04:18:37;;;;;;;8.47;5.23;;;;;;;10.80;100.00;93351.09;5074504;28;20198;-75
2021/07/14 04:21:10;;;;;;;9.05;4.90;;;;;;;10.82;100.00;93351.69;5074319;28;20481;-76
2021/07/14 04:23:37;;;;;;;11.83;5.37;;;;;;;10.84;100.00;93353.06;5074246;28;20203;-77
2021/07/14 04:26:03;;;;;;;5.70;4.33;;;;;;;10.85;100.00;93352.03;5074128;28;20238;-78
2021/07/14 04:28:34;;;;;;;8.87;5.20;;;;;;;10.85;100.00;93357.28;5074150;28;20577;-77
2021/07/14 04:31:00;;;;;;;7.27;4.67;;;;;;;10.85;100.00;93356.47;5074337;28;20207;-77
2021/07/14 04:33:29;;;;;;;7.33;4.43;;;;;;;10.89;100.00;93355.03;5074222;28;20198;-77
2021/07/14 04:35:59;;;;;;;9.87;5.10;;;;;;;10.95;100.00;93348.97;5073936;28;20653;-77
2021/07/14 04:38:25;;;;;;;8.27;4.50;;;;;;;10.94;100.00;93344.75;5073928;28;20220;-75
2021/07/14 04:40:53;;;;;;;8.50;4.37;;;;;;;11.01;100.00;93345.50;5074158;28;20198;-76
2021/07/14 04:43:22;;;;;;;5.90;4.40;;;;;;;11.04;100.00;93350.31;5073977;28;20248;-76
2021/07/14 04:45:51;;;;;;;9.77;4.97;;;;;;;11.09;100.00;93353.06;5073929;28;20234;-76
2021/07/14 04:48:18;;;;;;;7.27;4.70;;;;;;;11.19;100.00;93349.16;5073736;28;20226;-76
2021/07/14 04:50:44;;;;;;;6.33;4.50;;;;;;;11.22;100.00;93351.34;5073412;28;20205;-76
2021/07/14 04:53:11;;;;;;;7.47;4.33;;;;;;;11.27;100.00;93354.94;5073896;28;20203;-79
2021/07/14 04:55:40;;;;;;;7.82;4.97;;;;;;;11.35;100.00;93360.91;5073426;28;20438;-77
2021/07/14 04:58:07;;;;;;;5.63;4.33;;;;;;;11.41;100.00;93360.84;5073733;28;20203;-77
2021/07/14 05:00:33;;;;;;;8.23;4.23;;;;;;;11.48;100.00;93361.56;5073572;28;20202;-77
2021/07/14 05:03:04;;;;;;;7.33;4.07;;;;;;;11.54;100.00;93359.09;5073473;28;20202;-76
2021/07/14 05:05:33;;;;;;;5.03;3.30;;;;;;;11.52;100.00;93361.13;5073523;28;20198;-77
2021/07/14 05:07:59;;;;;;;4.90;3.30;;;;;;;11.53;100.00;93362.75;5073550;28;20230;-76
2021/07/14 05:10:29;;;;;;;5.53;3.70;;;;;;;11.50;100.00;93373.63;5073622;28;20207;-79
2021/07/14 05:12:56;;;;;;;6.57;3.70;;;;;;;11.59;100.00;93364.47;5073407;28;20206;-77
2021/07/14 05:15:23;;;;;;;6.23;4.10;;;;;;;11.65;100.00;93361.78;5073385;28;20195;-77
2021/07/14 05:17:52;;;;;;;7.57;4.10;;;;;;;11.75;100.00;93371.75;5073257;28;20202;-77
2021/07/14 05:20:20;;;;;;;7.40;3.50;;;;;;;11.77;100.00;93364.47;5073561;28;20209;-76
2021/07/14 05:22:47;;;;;;;7.57;3.63;;;;;;;11.97;100.00;93361.69;5073285;28;20203;-77
2021/07/14 05:25:15;;;;;;;8.97;3.67;;;;;;;12.01;100.00;93370.69;5072824;28;20210;-77
2021/07/14 05:27:42;;;;;;;5.10;3.53;;;;;;;12.13;100.00;93367.34;5072763;28;20697;-76
2021/07/14 05:30:10;;;;;;;4.57;3.20;;;;;;;12.04;100.00;93359.00;5073075;28;20198;-77
2021/07/14 05:32:37;;;;;;;4.80;3.40;;;;;;;12.18;100.00;93364.88;5073357;28;20194;-76
2021/07/14 05:35:09;;;;;;;7.23;3.40;;;;;;;12.16;100.00;93362.47;5073188;28;20206;-78
2021/07/14 05:37:37;;;;;;;4.77;3.17;;;;;;;12.35;100.00;93365.06;5072866;28;20668;-79
2021/07/14 05:40:04;;;;;;;10.17;3.63;;;;;;;12.36;100.00;93366.66;5073094;28;20331;-78
2021/07/14 05:42:31;;;;;;;10.73;3.13;;;;;;;12.44;100.00;93370.78;5073000;28;20194;-80
2021/07/14 05:45:00;;;;;;;5.57;3.30;;;;;;;12.61;100.00;93376.19;5072559;28;20216;-77
2021/07/14 05:47:35;;;;;;;4.93;3.10;;;;;;;12.83;100.00;93376.50;5072793;28;20696;-78
2021/07/14 05:50:04;;;;;;;7.30;3.22;;;;;;;12.98;100.00;93369.00;5073093;28;20203;-78
2021/07/14 05:52:31;;;;;;;4.32;2.90;;;;;;;13.04;100.00;93369.91;5073013;28;20290;-78
2021/07/14 05:54:59;;;;;;;5.78;3.40;;;;;;;13.18;100.00;93379.19;5072915;28;20194;-76
2021/07/14 05:57:27;;;;;;;4.45;2.80;;;;;;;13.27;100.00;93377.84;5072852;28;20195;-77
2021/07/14 05:59:55;;;;;;;4.97;3.30;;;;;;;13.68;100.00;93384.00;5073055;28;20293;-77
2021/07/14 06:02:21;;;;;;;4.57;2.95;;;;;;;13.84;100.00;93381.75;5072956;28;20205;-78
2021/07/14 06:04:48;;;;;;;4.47;2.75;;;;;;;14.13;100.00;93384.41;5072874;28;20203;-77
2021/07/14 06:07:14;;;;;;;4.38;2.35;;;;;;;14.30;100.00;93389.75;5072659;28;20234;-78
2021/07/14 06:09:41;;;;;;;6.65;2.47;;;;;;;14.54;100.00;93374.72;5072778;28;20247;-77
2021/07/14 06:12:11;;;;;;;5.20;2.65;;;;;;;14.82;100.00;93384.41;5072596;28;20730;-78
2021/07/14 06:14:37;;;;;;;4.40;2.03;;;;;;;14.78;100.00;93384.09;5072813;28;20202;-79
2021/07/14 06:17:04;;;;;;;8.05;1.98;;;;;;;14.83;100.00;93383.41;5072769;28;20207;-77
2021/07/14 06:19:31;;;;;;;2.70;1.95;;;;;;;14.91;100.00;93384.84;5072771;28;20198;-77
2021/07/14 06:22:07;;;;;;;5.00;1.98;;;;;;;15.03;100.00;93385.56;5072740;28;20557;-76
2021/07/14 06:24:33;;;;;;;3.35;1.90;;;;;;;14.80;100.00;93379.41;5072550;28;20229;-76
2021/07/14 06:27:00;;;;;;;4.43;2.30;;;;;;;14.64;100.00;93377.56;5072410;28;20238;-76
2021/07/14 06:29:28;;;;;;;3.92;2.00;;;;;;;14.67;100.00;93371.84;5072569;28;20195;-78
2021/07/14 06:31:54;;;;;;;2.42;1.70;;;;;;;14.80;100.00;93368.91;5072446;28;20272;-77
2021/07/14 06:34:20;;;;;;;5.50;1.80;;;;;;;15.24;100.00;93376.19;5072337;28;20203;-76
2021/07/14 06:36:47;;;;;;;3.72;1.90;;;;;;;15.61;100.00;93375.69;5071918;28;20434;-77
2021/07/14 06:39:14;;;;;;;3.58;2.03;;;;;;;15.58;100.00;93384.06;5076249;28;20209;-77
2021/07/14 06:41:40;;;;;;;3.25;1.92;;;;;;;15.81;100.00;93379.69;5076433;28;20198;-77
2021/07/14 06:44:09;;;;;;;4.72;2.05;;;;;;;16.03;100.00;93377.88;5076298;28;20199;-77
2021/07/14 06:46:36;;;;;;;4.53;1.75;;;;;;;16.16;100.00;93384.63;5076305;28;20611;-77
2021/07/14 06:49:03;;;;;;;2.35;1.70;;;;;;;15.90;100.00;93380.84;5076168;28;20237;-77
2021/07/14 06:51:30;;;;;;;4.13;1.52;;;;;;;16.42;100.00;93382.28;5076058;28;20248;-78
2021/07/14 06:53:58;;;;;;;3.17;1.50;;;;;;;17.05;100.00;93395.09;5076291;28;20202;-77
2021/07/14 06:56:24;;;;;;;2.17;1.60;;;;;;;17.43;100.00;93395.94;5076070;28;20202;-77
2021/07/14 06:58:51;;;;;;;2.35;1.63;;;;;;;17.62;100.00;93391.88;5076075;28;20604;-78
2021/07/14 07:01:17;;;;;;;3.65;1.80;;;;;;;17.22;100.00;93390.50;5075810;28;20658;-79
2021/07/14 07:03:46;;;;;;;1.98;1.50;;;;;;;17.66;100.00;93392.94;5075807;28;20224;-77
2021/07/14 07:06:13;;;;;;;3.33;1.25;;;;;;;18.00;99.79;93395.31;5075803;28;20249;-77
2021/07/14 07:08:39;;;;;;;1.77;1.30;;;;;;;17.73;100.00;93396.16;5075786;28;20231;-77
2021/07/14 07:11:06;;;;;;;4.53;1.50;;;;;;;17.82;98.29;93385.94;5075537;28;20199;-77
2021/07/14 07:13:33;;;;;;;3.03;1.50;;;;;;;17.59;95.46;93394.22;5075750;28;20225;-77
2021/07/14 07:16:01;;;;;;;5.13;1.50;;;;;;;17.32;97.53;93385.31;5075645;28;20210;-77
2021/07/14 07:18:28;;;;;;;3.65;1.67;;;;;;;16.93;100.00;93382.84;5075729;28;20206;-78
2021/07/14 07:20:56;;;;;;;2.47;1.50;;;;;;;17.08;100.00;93389.31;5075482;28;20206;-79
2021/07/14 07:23:23;;;;;;;2.50;1.52;;;;;;;17.43;98.59;93386.19;5075587;28;20203;-77
2021/07/14 07:25:51;;;;;;;3.97;1.55;;;;;;;17.59;97.76;93388.94;5075361;28;20326;-77
2021/07/14 07:28:20;;;;;;;6.05;1.35;;;;;;;17.87;96.95;93386.00;5075259;28;20222;-77
2021/07/14 07:30:46;;;;;;;6.85;1.77;;;;;;;17.90;93.34;93379.38;5075365;28;20202;-78
2021/07/14 07:33:13;;;;;;;1.35;1.17;;;;;;;18.01;90.95;93385.53;5075253;28;20199;-77
2021/07/14 07:35:42;;;;;;;3.80;1.60;;;;;;;17.37;97.14;93385.34;5075335;28;20230;-77
2021/07/14 07:38:10;;;;;;;2.30;1.75;;;;;;;17.17;100.00;93383.34;5074819;28;20632;-76
2021/07/14 07:40:37;;;;;;;3.95;1.67;;;;;;;16.92;100.00;93386.53;5075241;28;20199;-75
2021/07/14 07:43:04;;;;;;;2.15;1.50;;;;;;;16.95;100.00;93379.97;5074772;28;20203;-78
2021/07/14 07:45:30;;;;;;;4.80;1.50;;;;;;;17.33;100.00;93376.34;5074075;28;20313;-78
2021/07/14 07:47:57;;;;;;;4.43;1.70;;;;;;;17.46;100.00;93380.41;5073678;28;20628;-77
2021/07/14 07:50:23;;;;;;;2.25;1.58;;;;;;;17.79;93.90;93377.72;5074162;28;20198;-77
2021/07/14 07:52:50;;;;;;;4.68;1.75;;;;;;;17.68;94.66;93380.28;5074981;28;20199;-77
2021/07/14 07:55:18;;;;;;;3.03;1.40;;;;;;;17.32;98.38;93385.31;5075066;28;20203;-77
2021/07/14 07:57:45;;;;;;;2.70;1.63;;;;;;;17.69;100.00;93395.09;5074971;28;20339;-76
2021/07/14 08:00:15;;;;;;;1.77;1.40;;;;;;;18.26;93.18;93390.16;5074807;28;20203;-76
2021/07/14 08:02:42;;;;;;;2.40;1.38;;;;;;;18.49;93.33;93397.66;5074622;28;20661;-78
2021/07/14 08:05:10;;;;;;;2.40;1.40;;;;;;;18.70;93.12;93403.00;5074602;28;20608;-76
2021/07/14 08:07:36;;;;;;;11.63;1.60;;;;;;;18.16;93.54;93405.97;5074694;28;20226;-76
2021/07/14 08:10:05;;;;;;;4.57;1.30;;;;;;;18.23;92.85;93399.38;5074649;28;20666;-75
2021/07/14 08:12:33;;;;;;;3.28;1.35;;;;;;;18.33;90.69;93406.56;5074661;28;20562;-75
2021/07/14 08:14:59;;;;;;;1.20;1.10;;;;;;;17.66;91.80;93408.00;5074418;28;20199;-78
2021/07/14 08:17:26;;;;;;;3.30;1.30;;;;;;;17.56;95.36;93400.81;5074444;28;20588;-76
2021/07/14 08:19:54;;;;;;;3.20;1.50;;;;;;;17.59;97.44;93400.28;5074573;28;20224;-76
2021/07/14 08:22:20;;;;;;;1.83;1.20;;;;;;;17.62;96.03;93407.72;5074361;28;20195;-76
2021/07/14 08:24:47;;;;;;;1.85;1.13;;;;;;;17.65;93.09;93404.56;5074313;28;20198;-75
2021/07/14 08:27:13;;;;;;;1.48;1.27;;;;;;;17.71;93.66;93411.47;5074112;28;20234;-77
2021/07/14 08:29:41;;;;;;;1.45;1.02;;;;;;;17.33;92.62;93417.75;5073881;28;20693;-78
2021/07/14 08:32:08;;;;;;;2.33;1.30;;;;;;;17.04;94.97;93417.22;5074244;28;20198;-78
2021/07/14 08:34:34;;;;;;;1.10;1.00;;;;;;;17.13;98.22;93429.72;5074209;28;20210;-78
2021/07/14 08:37:01;;;;;;;2.13;1.20;;;;;;;17.38;97.92;93426.50;5074033;28;20210;-77
2021/07/14 08:39:28;;;;;;;1.90;1.00;;;;;;;17.53;100.00;93433.75;5074053;28;20210;-78
2021/07/14 08:41:57;;;;;;;4.72;1.52;;;;;;;17.30;96.92;93431.47;5073903;28;20244;-75
2021/07/14 08:44:25;;;;;;;1.60;1.20;;;;;;;17.38;99.30;93434.44;5074058;28;20272;-76
2021/07/14 08:46:53;;;;;;;2.50;1.30;;;;;;;17.37;98.80;93438.13;5073948;28;20199;-76
2021/07/14 08:49:21;;;;;;;3.72;1.30;;;;;;;16.88;96.59;93427.63;5074123;28;20233;-76
2021/07/14 08:51:51;;;;;;;2.00;1.33;;;;;;;16.93;99.28;93430.31;5072646;28;20534;-76
2021/07/14 08:54:18;;;;;;;2.60;1.27;;;;;;;16.95;100.00;93430.06;5073689;28;20452;-76
2021/07/14 08:56:45;;;;;;;2.58;1.40;;;;;;;16.91;98.84;93432.41;5073542;28;20205;-76
2021/07/14 08:59:11;;;;;;;3.28;1.60;;;;;;;16.96;100.00;93440.38;5073783;28;20202;-76
2021/07/14 09:01:38;;;;;;;2.30;1.30;;;;;;;17.21;100.00;93446.94;5073649;28;20597;-75
2021/07/14 09:04:07;;;;;;;2.40;1.33;;;;;;;17.13;98.76;93447.41;5073572;28;20206;-75
2021/07/14 09:06:34;;;;;;;4.93;1.30;;;;;;;16.75;98.15;93449.06;5073645;28;20206;-76
2021/07/14 09:09:00;;;;;;;1.30;1.20;;;;;;;17.31;98.77;93452.31;5073274;28;20253;-75
2021/07/14 09:11:27;;;;;;;2.00;1.30;;;;;;;17.75;98.53;93440.78;5073591;28;20289;-77
2021/07/14 09:13:53;;;;;;;3.30;1.10;;;;;;;18.10;96.22;93442.09;5073524;28;20205;-77
2021/07/14 09:16:34;;;;;;;2.25;1.30;;;;;;;18.54;92.58;93451.63;5073472;28;20210;-78
2021/07/14 09:19:10;;;;;;;2.63;1.30;;;;;;;18.74;89.66;93451.69;5073390;28;20240;-76
2021/07/14 09:21:40;;;;;;;3.47;1.77;;;;;;;18.71;84.04;93456.69;5073190;28;20657;-76
2021/07/14 09:24:25;;;;;;;9.85;1.52;;;;;;;18.36;87.80;93466.06;5073435;28;20657;-77
2021/07/14 09:26:52;;;;;;;4.30;1.20;;;;;;;18.12;85.92;93469.88;5073119;28;20226;-76
2021/07/14 09:29:19;;;;;;;1.75;1.38;;;;;;;18.33;97.95;93469.22;5072582;28;20232;-75
2021/07/14 09:31:47;;;;;;;1.20;1.08;;;;;;;18.57;93.56;93461.66;5073079;28;20661;-78
2021/07/14 09:34:30;;;;;;;1.48;1.10;;;;;;;18.40;92.54;93467.94;5073044;28;20206;-78
2021/07/14 09:36:58;;;;;;;2.75;1.40;;;;;;;18.90;88.96;93470.28;5073239;28;20206;-76
2021/07/14 09:39:36;;;;;;;1.45;1.20;;;;;;;18.89;88.32;93474.00;5073124;28;20201;-76
2021/07/14 09:42:06;;;;;;;1.30;1.20;;;;;;;18.79;86.90;93478.16;5073067;28;20206;-77
2021/07/14 09:44:44;;;;;;;4.28;1.35;;;;;;;18.72;88.06;93482.06;5073023;28;20205;-77
2021/07/14 09:47:13;;;;;;;2.45;1.20;;;;;;;18.74;89.37;93472.84;5073082;28;20202;-75
2021/07/14 09:49:45;;;;;;;1.70;1.10;;;;;;;18.47;86.58;93478.28;5072930;28;20233;-78
2021/07/14 09:52:15;;;;;;;2.17;1.40;;;;;;;18.25;91.07;93486.31;5072731;28;20569;-78
2021/07/14 09:54:42;;;;;;;4.47;1.50;;;;;;;17.80;95.15;93490.22;5072699;28;20229;-77
2021/07/14 09:57:10;;;;;;;2.33;1.38;;;;;;;17.71;94.16;93497.81;5072596;28;20665;-77
2021/07/14 09:59:37;;;;;;;2.95;1.52;;;;;;;17.65;96.37;93483.78;5072718;28;20657;-76
2021/07/14 10:02:04;;;;;;;2.95;1.50;;;;;;;17.94;94.84;93486.13;5076004;28;20225;-80
2021/07/14 10:04:32;;;;;;;2.15;1.38;;;;;;;18.34;90.89;93479.53;5072597;28;20234;-77
2021/07/14 10:07:08;;;;;;;3.22;1.40;;;;;;;18.40;91.62;93483.78;5072455;28;20301;-78
2021/07/14 10:09:34;;;;;;;2.35;1.60;;;;;;;18.24;92.81;93485.53;5060234;28;20230;-77
2021/07/14 10:12:27;;;;;;;2.28;1.25;;;;;;;19.22;86.42;93470.91;5053168;28;20654;-78
2021/07/14 10:14:54;;;;;;;3.30;1.15;;;;;;;19.86;82.92;93476.81;5056743;28;20199;-76
2021/07/14 10:17:36;;;;;;;3.38;1.33;;;;;;;19.31;85.63;93475.69;5067326;28;20249;-78
2021/07/14 10:20:34;;;;;;;8.27;1.10;;;;;;;20.16;83.75;93475.22;5076176;28;20672;-76
2021/07/14 10:23:05;;;;;;;6.80;1.98;;;;;;;20.31;79.15;93477.81;5076536;28;20696;-76
2021/07/14 10:25:33;;;;;;;1.30;1.20;;;;;;;20.49;75.84;93475.69;5076355;28;20242;-76
2021/07/14 10:28:01;;;;;;;2.00;1.35;;;;;;;21.11;79.00;93480.78;5076197;28;20290;-77
2021/07/14 10:30:28;;;;;;;10.57;3.10;;;;;;;20.89;72.74;93479.28;5076198;28;20626;-76
2021/07/14 10:32:56;;;;;;;5.43;2.25;;;;;;;20.96;73.67;93476.34;5076487;28;20281;-83
2021/07/14 10:35:25;;;;;;;4.20;1.52;;;;;;;21.12;73.01;93474.41;5075918;28;20195;-77
2021/07/14 10:37:56;;;;;;;1.17;1.00;;;;;;;20.14;77.48;93472.03;5076206;28;20203;-83
2021/07/14 10:40:24;;;;;;;6.00;1.20;;;;;;;19.98;75.27;93486.38;5068686;28;20207;-77
2021/07/14 10:42:52;;;;;;;3.88;1.80;;;;;;;19.36;82.30;93486.28;5055313;28;20208;-79
2021/07/14 10:45:20;;;;;;;1.58;1.25;;;;;;;19.17;86.85;93486.78;5056305;28;20208;-80
2021/07/14 10:47:51;;;;;;;6.78;2.60;;;;;;;19.14;86.56;93491.81;5056145;28;20226;-80
2021/07/14 10:50:19;;;;;;;2.78;1.30;;;;;;;19.14;80.30;93497.88;5056051;28;20230;-79
2021/07/14 10:52:47;;;;;;;3.05;1.40;;;;;;;18.44;86.52;93490.16;5055950;28;20303;-79
2021/07/14 10:55:19;;;;;;;5.18;1.35;;;;;;;18.16;88.64;93488.66;5056023;28;20199;-79
2021/07/14 10:57:48;;;;;;;2.00;1.40;;;;;;;18.28;92.29;93489.25;5056139;28;20221;-79
2021/07/14 11:00:17;;;;;;;1.90;1.25;;;;;;;18.28;90.29;93485.81;5055958;28;20223;-77
2021/07/14 11:02:45;;;;;;;2.90;1.33;;;;;;;18.05;89.21;93490.44;5055937;28;20212;-76
2021/07/14 11:05:15;;;;;;;2.22;1.40;;;;;;;17.83;93.96;93495.00;5055922;28;20222;-77
2021/07/14 11:07:48;;;;;;;2.28;1.75;;;;;;;17.89;98.88;93486.88;5055722;28;20199;-77
2021/07/14 11:10:36;;;;;;;4.78;1.70;;;;;;;18.25;92.93;93484.50;5055398;28;20712;-78
2021/07/14 11:13:30;;;;;;;4.15;1.40;;;;;;;18.54;88.47;93489.41;5055753;28;20539;-78
2021/07/14 11:16:19;;;;;;;6.30;1.40;;;;;;;18.71;90.36;93485.78;5055557;28;20211;-78
2021/07/14 11:18:46;;;;;;;1.90;1.30;;;;;;;19.31;87.55;93486.28;5055316;28;20207;-79
2021/07/14 11:21:50;;;;;;;2.60;1.40;;;;;;;19.74;86.19;93478.91;5055466;28;20207;-78
2021/07/14 11:24:55;;;;;;;4.10;1.38;;;;;;;19.70;77.71;93477.84;5054149;28;20214;-78
2021/07/14 11:27:55;;;;;;;2.38;1.30;;;;;;;19.63;81.92;93469.38;5055143;28;20239;-78
2021/07/14 11:30:35;;;;;;;2.60;1.30;;;;;;;20.08;77.13;93473.09;5051800;28;20235;-78
2021/07/14 11:33:05;;;;;;;2.63;1.10;;;;;;;21.49;81.49;93475.81;5055123;28;20210;-78
2021/07/14 11:35:40;;;;;;;1.05;0.90;;;;;;;21.69;74.61;93473.03;5055523;28;20200;-78
2021/07/14 11:38:18;;;;;;;3.28;1.25;;;;;;;21.93;71.46;93481.09;5062542;28;20194;-78
2021/07/14 11:40:46;;;;;;;1.27;1.10;;;;;;;21.08;74.71;93471.50;5075338;28;20213;-78
2021/07/14 11:43:26;;;;;;;2.03;1.15;;;;;;;19.97;75.10;93472.31;5074872;28;20199;-77
2021/07/14 11:46:04;;;;;;;2.95;1.10;;;;;;;19.12;80.41;93478.81;5075138;28;20198;-79
2021/07/14 11:48:34;;;;;;;2.60;1.20;;;;;;;19.31;87.16;93471.19;5075091;28;20195;-79